createdAt,value
2022-08-17T00:01:52.018Z,106.70
2022-08-17T00:04:21.306Z,109.43
2022-08-17T00:06:50.119Z,109.67
2022-08-17T00:09:19.662Z,102.03
2022-08-17T00:12:40.660Z,103.57
2022-08-17T00:14:37.829Z,111.23
2022-08-17T00:17:06.493Z,102.87
2022-08-17T00:19:34.621Z,102.20
2022-08-17T00:22:33.854Z,101.57
2022-08-17T00:24:55.948Z,100.00
2022-08-17T00:27:24.333Z,101.00
2022-08-17T00:29:53.224Z,95.90
2022-08-17T00:33:13.569Z,99.53
2022-08-17T00:35:11.613Z,92.10
2022-08-17T00:37:39.760Z,97.07
2022-08-17T00:40:11.565Z,95.63
2022-08-17T00:42:39.996Z,96.20
2022-08-17T00:45:10.444Z,98.43
2022-08-17T00:47:38.709Z,103.80
2022-08-17T00:50:09.009Z,98.77
2022-08-17T00:52:39.198Z,94.17
2022-08-17T00:55:10.261Z,99.93
2022-08-17T00:57:41.676Z,99.77
2022-08-17T01:00:15.099Z,90.13
2022-08-17T01:02:45.503Z,101.10
2022-08-17T01:05:16.080Z,101.53
2022-08-17T01:07:47.508Z,103.27
2022-08-17T01:10:59.497Z,100.80
2022-08-17T01:13:08.322Z,101.47
2022-08-17T01:15:38.849Z,102.70
2022-08-17T01:18:08.827Z,96.37
2022-08-17T01:20:47.532Z,93.53
2022-08-17T01:23:21.280Z,97.80
2022-08-17T01:25:50.952Z,95.57
2022-08-17T01:28:33.447Z,95.80
2022-08-17T01:31:08.801Z,99.50
2022-08-17T01:33:37.269Z,92.83
2022-08-17T01:36:06.906Z,98.63
2022-08-17T01:38:36.648Z,98.93
2022-08-17T01:41:09.470Z,100.77
2022-08-17T01:43:45.217Z,100.03
2022-08-17T01:46:16.366Z,94.97
2022-08-17T01:48:47.397Z,96.17
2022-08-17T01:51:16.627Z,104.27
2022-08-17T01:53:49.366Z,99.10
2022-08-17T01:56:20.371Z,93.53
2022-08-17T01:58:48.644Z,92.97
2022-08-17T02:01:18.701Z,94.30
2022-08-17T02:03:53.154Z,95.20
2022-08-17T02:06:28.485Z,98.30
2022-08-17T02:09:02.362Z,91.83
2022-08-17T02:11:33.213Z,98.90
2022-08-17T02:14:02.516Z,99.77
2022-08-17T02:16:37.715Z,93.10
2022-08-17T02:19:07.946Z,97.87
2022-08-17T02:21:36.367Z,96.30
2022-08-17T02:24:06.443Z,98.73
2022-08-17T02:26:34.629Z,90.43
2022-08-17T02:29:04.054Z,87.67
2022-08-17T02:31:32.288Z,95.70
2022-08-17T02:34:04.388Z,95.00
2022-08-17T02:36:34.159Z,92.63
2022-08-17T02:39:03.257Z,92.50
2022-08-17T02:41:33.063Z,94.27
2022-08-17T02:44:01.617Z,93.80
2022-08-17T02:46:30.488Z,96.27
2022-08-17T02:48:58.594Z,89.90
2022-08-17T02:51:27.388Z,93.10
2022-08-17T02:54:05.316Z,92.63
2022-08-17T02:56:45.016Z,101.43
2022-08-17T02:59:13.440Z,93.63
2022-08-17T03:01:41.592Z,94.13
2022-08-17T03:04:09.721Z,91.47
2022-08-17T03:06:37.860Z,91.70
2022-08-17T03:09:06.120Z,91.80
2022-08-17T03:11:34.314Z,94.10
2022-08-17T03:14:03.735Z,88.97
2022-08-17T03:16:31.834Z,92.73
2022-08-17T03:19:01.570Z,92.07
2022-08-17T03:21:29.638Z,90.67
2022-08-17T03:23:57.722Z,89.00
2022-08-17T03:26:25.767Z,90.87
2022-08-17T03:28:58.126Z,87.20
2022-08-17T03:31:27.578Z,85.97
2022-08-17T03:33:56.620Z,82.73
2022-08-17T03:36:24.962Z,88.47
2022-08-17T03:38:53.050Z,84.23
2022-08-17T03:41:23.035Z,81.10
2022-08-17T03:43:51.104Z,80.27
2022-08-17T03:46:36.793Z,78.40
2022-08-17T03:49:25.476Z,82.07
2022-08-17T03:52:11.611Z,82.07
2022-08-17T03:54:58.202Z,78.10
2022-08-17T03:57:26.836Z,77.20
2022-08-17T03:59:54.997Z,78.43
2022-08-17T04:02:25.730Z,74.00
2022-08-17T04:04:55.407Z,73.80
2022-08-17T04:07:25.174Z,69.53
2022-08-17T04:09:53.208Z,64.73
2022-08-17T04:12:23.349Z,67.27
2022-08-17T04:14:54.700Z,70.60
2022-08-17T04:17:24.571Z,69.53
2022-08-17T04:19:52.946Z,66.10
2022-08-17T04:22:31.183Z,63.63
2022-08-17T04:25:05.041Z,66.70
2022-08-17T04:27:33.252Z,62.97
2022-08-17T04:30:01.413Z,63.30
2022-08-17T04:33:04.098Z,67.47
2022-08-17T04:35:21.955Z,65.90
2022-08-17T04:37:51.543Z,60.47
2022-08-17T04:40:39.253Z,64.77
2022-08-17T04:43:08.991Z,61.87
2022-08-17T04:45:40.255Z,62.70
2022-08-17T04:48:23.797Z,63.60
2022-08-17T04:51:05.383Z,59.30
2022-08-17T04:53:34.893Z,64.43
2022-08-17T04:56:02.969Z,58.80
2022-08-17T04:58:31.058Z,60.33
2022-08-17T05:00:59.229Z,63.10
2022-08-17T05:03:27.317Z,62.93
2022-08-17T05:05:55.315Z,62.93
2022-08-17T05:08:23.876Z,41.95
2022-08-17T05:10:53.337Z,17.63
2022-08-17T05:13:23.163Z,18.23
2022-08-17T05:15:54.926Z,17.43
2022-08-17T05:18:24.584Z,18.27
2022-08-17T05:20:53.271Z,17.80
2022-08-17T05:23:23.025Z,18.80
2022-08-17T05:25:54.706Z,17.90
2022-08-17T05:28:27.397Z,17.20
2022-08-17T05:30:57.960Z,16.80
2022-08-17T05:33:28.902Z,17.60
2022-08-17T05:35:59.065Z,16.50
2022-08-17T05:38:29.190Z,15.73
2022-08-17T05:40:59.528Z,15.93
2022-08-17T05:43:29.287Z,16.00
2022-08-17T05:46:03.814Z,15.53
2022-08-17T05:48:39.690Z,16.43
2022-08-17T05:51:31.935Z,15.33
2022-08-17T05:54:09.571Z,16.40
2022-08-17T05:56:53.083Z,16.17
2022-08-17T05:59:25.707Z,15.87
2022-08-17T06:01:59.256Z,15.73
2022-08-17T06:04:37.299Z,16.47
2022-08-17T06:07:08.945Z,15.77
2022-08-17T06:09:45.254Z,15.70
2022-08-17T06:12:31.940Z,15.70
2022-08-17T06:15:10.669Z,14.93
2022-08-17T06:17:39.189Z,16.37
2022-08-17T06:20:12.301Z,15.73
2022-08-17T06:22:44.565Z,16.93
2022-08-17T06:25:15.455Z,14.97
2022-08-17T06:27:48.911Z,16.50
2022-08-17T06:30:24.746Z,17.20
2022-08-17T06:32:53.992Z,15.03
2022-08-17T06:35:32.119Z,15.30
2022-08-17T06:38:05.254Z,16.77
2022-08-17T06:40:52.217Z,16.67
2022-08-17T06:43:32.677Z,16.33
2022-08-17T06:46:04.877Z,19.60
2022-08-17T06:48:37.307Z,17.30
2022-08-17T06:51:09.685Z,18.33
2022-08-17T06:53:40.399Z,20.43
2022-08-17T06:56:10.943Z,20.53
2022-08-17T06:58:42.077Z,22.47
2022-08-17T07:01:14.119Z,21.50
2022-08-17T07:03:47.725Z,23.73
2022-08-17T07:06:18.933Z,24.20
2022-08-17T07:08:54.266Z,28.87
2022-08-17T07:11:28.123Z,26.80
2022-08-17T07:14:07.156Z,30.53
2022-08-17T07:16:39.861Z,33.30
2022-08-17T07:19:10.984Z,32.90
2022-08-17T07:21:46.058Z,42.23
2022-08-17T07:24:30.548Z,44.77
2022-08-17T07:27:12.112Z,49.23
2022-08-17T07:29:46.396Z,46.73
2022-08-17T07:32:18.568Z,51.63
2022-08-17T07:35:22.191Z,50.97
2022-08-17T07:37:55.706Z,48.50
2022-08-17T07:40:30.910Z,51.87
2022-08-17T07:43:23.012Z,54.97
2022-08-17T07:46:13.210Z,50.27
2022-08-17T07:48:43.321Z,57.23
2022-08-17T07:51:27.024Z,51.80
2022-08-17T07:54:13.087Z,51.63
2022-08-17T07:56:46.498Z,51.33
2022-08-17T07:59:23.701Z,55.27
2022-08-17T08:02:18.268Z,47.97
2022-08-17T08:05:06.798Z,44.90
2022-08-17T08:07:45.092Z,44.50
2022-08-17T08:10:15.678Z,42.03
2022-08-17T08:12:45.704Z,48.90
2022-08-17T08:15:17.796Z,42.27
2022-08-17T08:17:53.640Z,40.83
2022-08-17T08:20:37.921Z,40.23
2022-08-17T08:23:28.618Z,38.43
2022-08-17T08:26:06.744Z,36.83
2022-08-17T08:28:43.667Z,34.47
2022-08-17T08:31:24.298Z,33.87
2022-08-17T08:34:03.320Z,30.60
2022-08-17T08:37:15.933Z,31.03
2022-08-17T08:39:47.066Z,24.93
2022-08-17T08:42:23.416Z,23.13
2022-08-17T08:45:00.952Z,23.77
2022-08-17T08:47:45.393Z,23.23
2022-08-17T08:50:37.273Z,23.73
2022-08-17T08:53:27.513Z,20.17
2022-08-17T08:55:57.637Z,29.27
2022-08-17T08:58:41.340Z,24.87
2022-08-17T09:01:17.339Z,20.53
2022-08-17T09:04:21.517Z,20.13
2022-08-17T09:06:59.652Z,24.37
2022-08-17T09:09:36.225Z,22.00
2022-08-17T09:12:09.503Z,21.77
2022-08-17T09:14:44.892Z,20.73
2022-08-17T09:17:18.345Z,20.83
2022-08-17T09:19:49.725Z,20.33
2022-08-17T09:22:25.820Z,21.63
2022-08-17T09:25:00.898Z,20.77
2022-08-17T09:27:33.006Z,20.90
2022-08-17T09:30:07.817Z,19.97
2022-08-17T09:32:44.012Z,19.53
2022-08-17T09:35:16.378Z,22.67
2022-08-17T09:37:56.882Z,18.87
2022-08-17T09:40:28.313Z,19.80
2022-08-17T09:43:01.310Z,22.90
2022-08-17T09:45:33.253Z,28.90
2022-08-17T09:48:05.035Z,24.20
2022-08-17T09:51:03.586Z,28.03
2022-08-17T09:53:32.046Z,35.83
2022-08-17T09:56:43.730Z,50.67
2022-08-17T09:59:38.391Z,72.20
2022-08-17T10:02:25.963Z,75.30
2022-08-17T10:04:59.977Z,73.87
2022-08-17T10:07:31.533Z,73.10
2022-08-17T10:10:07.035Z,68.63
2022-08-17T10:12:40.332Z,62.90
2022-08-17T10:15:22.492Z,72.80
2022-08-17T10:18:11.350Z,72.03
2022-08-17T10:20:44.991Z,83.70
2022-08-17T10:23:33.376Z,96.80
2022-08-17T10:26:13.965Z,103.43
2022-08-17T10:28:48.230Z,110.17
2022-08-17T10:31:34.849Z,110.63
2022-08-17T10:34:18.854Z,108.83
2022-08-17T10:36:50.294Z,99.60
2022-08-17T10:39:25.272Z,101.47
2022-08-17T10:41:57.144Z,108.27
2022-08-17T10:44:37.147Z,94.93
2022-08-17T10:47:12.677Z,90.47
2022-08-17T10:49:47.801Z,85.80
2022-08-17T10:52:50.234Z,82.13
2022-08-17T10:55:20.319Z,77.23
2022-08-17T10:57:51.555Z,85.97
2022-08-17T11:01:03.842Z,86.10
2022-08-17T11:03:32.976Z,77.43
2022-08-17T11:06:12.688Z,86.90
2022-08-17T11:09:08.775Z,84.97
2022-08-17T11:12:07.261Z,92.67
2022-08-17T11:14:53.197Z,98.47
2022-08-17T11:17:35.993Z,101.90
2022-08-17T11:20:18.847Z,109.43
2022-08-17T11:23:13.093Z,106.77
2022-08-17T11:25:45.076Z,107.07
2022-08-17T11:28:18.127Z,111.30
2022-08-17T11:30:50.145Z,111.67
2022-08-17T11:34:03.578Z,122.83
2022-08-17T11:36:57.439Z,115.33
2022-08-17T11:39:38.849Z,127.57
2022-08-17T11:42:17.858Z,133.30
2022-08-17T11:44:52.922Z,133.33
2022-08-17T11:48:08.904Z,135.40
2022-08-17T11:51:05.642Z,133.00
2022-08-17T11:54:32.715Z,134.73
2022-08-17T11:56:55.108Z,124.60
2022-08-17T11:59:58.662Z,128.20
2022-08-17T12:02:48.196Z,117.70
2022-08-17T12:05:29.338Z,111.40
2022-08-17T12:08:08.166Z,109.37
2022-08-17T12:10:37.911Z,107.90
2022-08-17T12:13:12.321Z,114.57
2022-08-17T12:15:45.025Z,109.23
2022-08-17T12:18:22.116Z,106.50
2022-08-17T12:21:15.483Z,105.63
2022-08-17T12:23:55.598Z,106.73
2022-08-17T12:26:27.244Z,109.97
2022-08-17T12:28:58.809Z,118.50
2022-08-17T12:31:30.986Z,108.23
2022-08-17T12:34:00.599Z,108.27
2022-08-17T12:36:30.352Z,109.63
2022-08-17T12:39:14.272Z,106.60
2022-08-17T12:41:45.044Z,108.73
2022-08-17T12:44:15.932Z,106.73
2022-08-17T12:46:51.305Z,106.13
2022-08-17T12:49:30.718Z,101.70
2022-08-17T12:52:05.810Z,99.37
2022-08-17T12:54:42.290Z,102.27
2022-08-17T12:57:16.604Z,106.83
2022-08-17T12:59:47.516Z,100.27
2022-08-17T13:02:31.538Z,102.63
2022-08-17T13:05:02.286Z,103.20
2022-08-17T13:07:35.309Z,100.27
2022-08-17T13:10:04.885Z,107.43
2022-08-17T13:12:35.782Z,108.83
2022-08-17T13:15:04.663Z,114.27
2022-08-17T13:17:35.840Z,112.67
2022-08-17T13:20:07.259Z,112.03
2022-08-17T13:22:35.475Z,111.27
2022-08-17T13:25:07.452Z,107.57
2022-08-17T13:27:35.654Z,105.27
2022-08-17T13:30:08.935Z,109.20
2022-08-17T13:32:43.911Z,113.03
2022-08-17T13:35:41.371Z,117.27
2022-08-17T13:38:16.683Z,129.03
2022-08-17T13:40:50.239Z,129.23
2022-08-17T13:43:40.986Z,134.93
2022-08-17T13:46:10.950Z,137.43
2022-08-17T13:48:39.147Z,131.40
2022-08-17T13:51:18.707Z,132.53
2022-08-17T13:53:56.230Z,127.17
2022-08-17T13:56:51.472Z,123.73
2022-08-17T13:59:53.361Z,121.87
2022-08-17T14:02:19.980Z,113.93
2022-08-17T14:04:49.047Z,119.60
2022-08-17T14:07:30.184Z,120.30
2022-08-17T14:10:01.277Z,120.07
2022-08-17T14:12:31.221Z,115.47
2022-08-17T14:14:59.923Z,124.63
2022-08-17T14:17:35.063Z,113.17
2022-08-17T14:20:09.547Z,119.83
2022-08-17T14:22:41.363Z,107.37
2022-08-17T14:25:10.707Z,103.43
2022-08-17T14:27:51.961Z,95.37
2022-08-17T14:30:23.947Z,92.27
2022-08-17T14:32:53.008Z,89.43
2022-08-17T14:35:23.203Z,76.27
2022-08-17T14:37:53.539Z,90.13
2022-08-17T14:40:24.560Z,87.83
2022-08-17T14:42:55.230Z,92.43
2022-08-17T14:45:30.389Z,93.33
2022-08-17T14:48:04.291Z,82.67
2022-08-17T14:50:35.180Z,87.33
2022-08-17T14:53:06.638Z,83.73
2022-08-17T14:55:36.320Z,92.50
2022-08-17T14:58:05.717Z,94.53
2022-08-17T15:00:34.223Z,95.50
2022-08-17T15:03:05.928Z,103.50
2022-08-17T15:05:40.328Z,109.40
2022-08-17T15:08:17.796Z,109.57
2022-08-17T15:10:55.935Z,101.57
2022-08-17T15:13:27.762Z,103.57
2022-08-17T15:15:59.948Z,102.00
2022-08-17T15:18:28.770Z,109.57
2022-08-17T15:20:58.369Z,105.77
2022-08-17T15:23:28.656Z,102.00
2022-08-17T15:26:00.120Z,101.53
2022-08-17T15:28:28.455Z,104.70
2022-08-17T15:30:57.329Z,99.30
2022-08-17T15:33:29.958Z,99.00
2022-08-17T15:35:59.695Z,93.77
2022-08-17T15:38:31.988Z,102.43
2022-08-17T15:41:00.444Z,95.37
2022-08-17T15:43:32.546Z,101.83
2022-08-17T15:46:03.158Z,97.73
2022-08-17T15:48:42.515Z,92.80
2022-08-17T15:51:14.183Z,87.97
2022-08-17T15:53:44.632Z,89.47
2022-08-17T15:56:14.497Z,88.73
2022-08-17T15:58:43.910Z,85.10
2022-08-17T16:01:14.852Z,86.53
2022-08-17T16:04:04.080Z,80.93
2022-08-17T16:06:35.739Z,84.77
2022-08-17T16:09:05.456Z,83.20
2022-08-17T16:11:34.292Z,82.80
2022-08-17T16:14:02.470Z,87.53
2022-08-17T16:16:31.475Z,85.00
2022-08-17T16:19:00.785Z,79.37
2022-08-17T16:21:31.213Z,79.93
2022-08-17T16:24:13.591Z,80.70
2022-08-17T16:26:43.944Z,73.60
2022-08-17T16:29:12.428Z,78.80
2022-08-17T16:31:41.931Z,78.03
2022-08-17T16:34:16.986Z,78.87
2022-08-17T16:36:55.333Z,78.20
2022-08-17T16:39:27.654Z,77.03
2022-08-17T16:41:56.081Z,79.13
2022-08-17T16:44:24.823Z,76.00
2022-08-17T16:46:53.468Z,76.50
2022-08-17T16:49:36.375Z,74.30
2022-08-17T16:52:10.456Z,74.60
2022-08-17T16:54:43.471Z,73.13
2022-08-17T16:57:13.124Z,73.87
2022-08-17T16:59:43.918Z,68.17
2022-08-17T17:02:16.077Z,65.80
2022-08-17T17:04:51.954Z,61.00
2022-08-17T17:07:37.582Z,66.40
2022-08-17T17:10:11.484Z,66.67
2022-08-17T17:13:02.006Z,64.83
2022-08-17T17:15:37.281Z,61.57
2022-08-17T17:18:06.750Z,60.03
2022-08-17T17:20:43.642Z,61.77
2022-08-17T17:23:15.560Z,60.47
2022-08-17T17:25:53.928Z,69.83
2022-08-17T17:28:25.448Z,61.23
2022-08-17T17:31:02.396Z,63.07
2022-08-17T17:33:36.344Z,61.93
2022-08-17T17:36:09.109Z,56.73
2022-08-17T17:38:41.940Z,56.67
2022-08-17T17:41:16.892Z,56.90
2022-08-17T17:43:50.968Z,55.30
2022-08-17T17:46:28.892Z,53.37
2022-08-17T17:48:58.455Z,50.07
2022-08-17T17:52:09.605Z,52.03
2022-08-17T17:54:32.407Z,51.97
2022-08-17T17:57:08.878Z,50.37
2022-08-17T17:59:44.113Z,50.53
2022-08-17T18:02:51.774Z,48.57
2022-08-17T18:05:49.550Z,47.33
2022-08-17T18:08:32.375Z,45.57
2022-08-17T18:11:14.485Z,47.67
2022-08-17T18:14:04.948Z,42.30
2022-08-17T18:16:33.875Z,42.43
2022-08-17T18:19:02.091Z,44.23
2022-08-17T18:21:33.920Z,41.40
2022-08-17T18:24:04.109Z,41.73
2022-08-17T18:26:39.361Z,40.33
2022-08-17T18:29:24.585Z,41.03
2022-08-17T18:32:24.759Z,34.87
2022-08-17T18:34:55.006Z,34.27
2022-08-17T18:37:37.012Z,37.63
2022-08-17T18:40:32.619Z,33.20
2022-08-17T18:43:08.027Z,30.60
2022-08-17T18:45:46.831Z,32.33
2022-08-17T18:48:33.031Z,29.80
2022-08-17T18:51:06.469Z,29.60
2022-08-17T18:53:38.179Z,31.03
2022-08-17T18:56:31.338Z,29.10
2022-08-17T18:59:09.198Z,25.50
2022-08-17T19:01:53.242Z,24.77
2022-08-17T19:04:36.859Z,25.07
2022-08-17T19:07:12.737Z,24.27
2022-08-17T19:09:44.356Z,23.90
2022-08-17T19:12:26.414Z,23.97
2022-08-17T19:14:56.810Z,22.87
2022-08-17T19:17:30.762Z,24.87
2022-08-17T19:20:09.262Z,22.90
2022-08-17T19:22:49.697Z,21.53
2022-08-17T19:25:22.638Z,21.83
2022-08-17T19:27:57.440Z,20.53
2022-08-17T19:30:27.929Z,22.73
2022-08-17T19:32:58.644Z,27.90
2022-08-17T19:35:31.971Z,38.70
2022-08-17T19:38:12.852Z,50.60
2022-08-17T19:40:56.529Z,61.37
2022-08-17T19:43:31.934Z,68.17
2022-08-17T19:46:06.190Z,69.73
2022-08-17T19:48:45.706Z,77.50
2022-08-17T19:51:18.543Z,86.43
2022-08-17T19:54:05.360Z,92.73
2022-08-17T19:56:42.532Z,106.97
2022-08-17T19:59:24.575Z,104.00
2022-08-17T20:01:58.180Z,113.40
2022-08-17T20:04:38.416Z,109.23
2022-08-17T20:07:12.408Z,110.33
2022-08-17T20:09:46.199Z,116.20
2022-08-17T20:12:17.938Z,108.67
2022-08-17T20:14:53.819Z,108.93
2022-08-17T20:17:25.732Z,108.93
2022-08-17T20:20:03.930Z,119.77
2022-08-17T20:22:36.811Z,135.07
2022-08-17T20:25:30.138Z,145.80
2022-08-17T20:28:05.809Z,152.73
2022-08-17T20:30:38.507Z,160.80
2022-08-17T20:33:08.254Z,213.37
2022-08-17T20:36:04.187Z,295.70
2022-08-17T20:38:42.563Z,313.90
2022-08-17T20:41:15.418Z,350.50
2022-08-17T20:43:51.713Z,368.60
2022-08-17T20:46:31.888Z,368.90
2022-08-17T20:49:14.956Z,382.63
2022-08-17T20:52:01.255Z,400.70
2022-08-17T20:54:49.631Z,387.90
2022-08-17T20:57:49.080Z,394.73
2022-08-17T21:00:46.484Z,406.20
2022-08-17T21:03:57.523Z,406.20
2022-08-17T21:06:26.324Z,407.07
2022-08-17T21:09:24.125Z,391.63
2022-08-17T21:12:03.775Z,409.17
2022-08-17T21:14:58.070Z,403.90
2022-08-17T21:17:35.256Z,394.00
2022-08-17T21:20:12.061Z,412.23
2022-08-17T21:22:52.156Z,402.70
2022-08-17T21:25:34.481Z,397.43
2022-08-17T21:28:07.351Z,403.27
2022-08-17T21:30:50.138Z,398.30
2022-08-17T21:33:25.522Z,504.70
2022-08-17T21:35:58.767Z,653.13
2022-08-17T21:38:36.401Z,710.17
2022-08-17T21:41:06.537Z,700.00
2022-08-17T21:43:37.531Z,740.70
2022-08-17T21:46:08.393Z,797.40
2022-08-17T21:48:44.392Z,806.43
2022-08-17T21:51:17.597Z,800.67
2022-08-17T21:53:49.015Z,849.47
2022-08-17T21:56:26.830Z,849.40
2022-08-17T21:58:58.771Z,849.17
2022-08-17T22:01:28.712Z,846.60
2022-08-17T22:04:00.145Z,850.27
2022-08-17T22:06:31.380Z,843.27
2022-08-17T22:09:21.584Z,852.37
2022-08-17T22:11:58.199Z,842.23
2022-08-17T22:14:52.691Z,841.83
2022-08-17T22:17:24.823Z,834.73
2022-08-17T22:19:55.354Z,840.77
2022-08-17T22:22:56.147Z,851.47
2022-08-17T22:25:26.326Z,838.03
2022-08-17T22:27:58.660Z,829.40
2022-08-17T22:30:34.101Z,831.43
2022-08-17T22:33:35.832Z,841.27
2022-08-17T22:36:13.551Z,837.13
2022-08-17T22:38:52.269Z,834.53
2022-08-17T22:41:52.111Z,834.73
2022-08-17T22:44:25.512Z,833.00
2022-08-17T22:46:57.844Z,832.40
2022-08-17T22:49:29.273Z,821.50
2022-08-17T22:52:24.374Z,838.73
2022-08-17T22:55:24.113Z,826.63
2022-08-17T22:58:10.018Z,826.50
2022-08-17T23:00:42.305Z,826.57
2022-08-17T23:03:14.725Z,826.70
2022-08-17T23:05:45.029Z,830.57
2022-08-17T23:08:13.714Z,815.43
2022-08-17T23:10:42.434Z,825.90
2022-08-17T23:13:12.008Z,819.33
2022-08-17T23:15:43.140Z,825.47
2022-08-17T23:18:11.565Z,813.80
2022-08-17T23:20:41.637Z,822.87
2022-08-17T23:23:11.515Z,818.93
2022-08-17T23:25:39.845Z,821.03
2022-08-17T23:28:08.287Z,830.77
2022-08-17T23:30:40.361Z,824.33
2022-08-17T23:33:14.300Z,832.23
2022-08-17T23:35:42.908Z,818.20
2022-08-17T23:38:11.163Z,824.27
2022-08-17T23:40:39.918Z,819.87
2022-08-17T23:43:23.569Z,823.53
2022-08-17T23:45:53.654Z,821.20
2022-08-17T23:48:36.314Z,822.47
2022-08-17T23:51:09.108Z,811.13
2022-08-17T23:53:41.840Z,818.87
2022-08-17T23:56:11.828Z,826.27
2022-08-17T23:58:42.061Z,815.60
